createdAt,value
2019-05-25T00:01:32.326Z,87
2019-05-25T00:06:47.317Z,87
2019-05-25T00:12:03.922Z,88
2019-05-25T00:17:20.265Z,87
2019-05-25T00:22:35.207Z,87
2019-05-25T00:27:50.368Z,86
2019-05-25T00:33:05.748Z,86
2019-05-25T00:38:21.478Z,86
2019-05-25T00:54:01.465Z,87
2019-05-25T00:59:18.065Z,88
2019-05-25T01:04:32.399Z,88
2019-05-25T01:09:48.706Z,88
2019-05-25T01:15:05.302Z,88
2019-05-25T01:20:20.586Z,89
2019-05-25T01:25:35.491Z,88
2019-05-25T01:30:50.557Z,87
2019-05-25T01:36:05.488Z,87
2019-05-25T01:41:18.669Z,87
2019-05-25T01:46:37.937Z,87
2019-05-25T01:57:06.158Z,89
2019-05-25T02:02:21.371Z,89
2019-05-25T02:07:36.708Z,89
2019-05-25T02:12:52.101Z,89
2019-05-25T02:18:07.354Z,89
2019-05-25T02:23:20.986Z,90
2019-05-25T02:28:37.092Z,90
2019-05-25T02:33:52.301Z,90
2019-05-25T02:39:07.662Z,90
2019-05-25T02:44:20.060Z,90
2019-05-25T02:49:36.970Z,90
2019-05-25T02:54:52.428Z,90
2019-05-25T03:00:08.053Z,90
2019-05-25T03:05:25.025Z,90
2019-05-25T03:10:41.082Z,90
2019-05-25T03:15:56.470Z,90
2019-05-25T03:21:11.915Z,90
2019-05-25T03:26:27.665Z,90
2019-05-25T03:31:41.202Z,90
2019-05-25T03:36:57.534Z,90
2019-05-25T03:42:10.734Z,90
2019-05-25T03:47:26.975Z,90
2019-05-25T03:52:42.260Z,90
2019-05-25T03:57:57.595Z,90
2019-05-25T04:03:13.084Z,91
2019-05-25T04:08:30.623Z,91
2019-05-25T04:13:43.414Z,91
2019-05-25T04:19:00.285Z,91
2019-05-25T04:24:16.719Z,91
2019-05-25T04:29:29.888Z,91
2019-05-25T04:34:48.571Z,91
2019-05-25T04:40:04.851Z,91
2019-05-25T04:45:21.668Z,90
2019-05-25T04:50:36.925Z,89
2019-05-25T04:55:52.168Z,89
2019-05-25T05:01:07.709Z,90
2019-05-25T05:06:22.730Z,90
2019-05-25T05:11:38.171Z,90
2019-05-25T05:16:53.231Z,90
2019-05-25T05:22:09.702Z,89
2019-05-25T05:27:27.076Z,89
2019-05-25T05:33:11.014Z,87
2019-05-25T05:38:55.415Z,85
2019-05-25T05:44:10.659Z,85
2019-05-25T05:49:26.510Z,85
2019-05-25T05:54:41.799Z,85
2019-05-25T05:59:56.783Z,85
2019-05-25T06:05:48.263Z,83
2019-05-25T06:11:02.568Z,83
2019-05-25T06:16:17.546Z,82
2019-05-25T06:21:32.839Z,83
2019-05-25T06:26:47.996Z,82
2019-05-25T06:32:03.374Z,80
2019-05-25T06:37:18.654Z,80
2019-05-25T06:42:35.734Z,78
2019-05-25T06:47:51.344Z,76
2019-05-25T06:53:07.423Z,75
2019-05-25T06:58:23.761Z,75
2019-05-25T07:19:18.591Z,76
2019-05-25T07:24:34.474Z,76
2019-05-25T07:29:52.894Z,76
2019-05-25T07:35:09.481Z,75
2019-05-25T07:40:26.712Z,73
2019-05-25T07:45:44.001Z,72
2019-05-25T07:51:00.232Z,72
2019-05-25T08:17:09.493Z,71
2019-05-25T08:27:39.298Z,70
2019-05-25T08:38:10.997Z,69
2019-05-25T08:43:28.513Z,68
2019-05-25T08:48:44.540Z,68
2019-05-25T08:54:01.890Z,67
2019-05-25T09:04:31.735Z,66
2019-05-25T09:09:47.622Z,66
2019-05-25T09:30:45.078Z,63
2019-05-25T10:44:05.517Z,59
2019-05-25T11:10:21.495Z,56
2019-05-25T11:15:37.959Z,55
2019-05-25T11:20:54.196Z,52
2019-05-25T11:36:38.532Z,52
2019-05-25T13:11:10.174Z,50
2019-05-25T13:16:26.589Z,46
2019-05-25T13:21:43.519Z,45
2019-05-25T13:26:59.700Z,43
2019-05-25T13:42:43.539Z,41
2019-05-25T13:47:59.790Z,41
2019-05-25T14:04:21.433Z,41
2019-05-25T14:09:36.784Z,39
2019-05-25T14:14:55.028Z,39
2019-05-25T18:04:55.230Z,53
2019-05-25T18:10:10.081Z,54
2019-05-25T18:15:24.617Z,55
2019-05-25T18:20:40.989Z,55
2019-05-25T18:25:56.082Z,56
2019-05-25T18:31:13.572Z,57
2019-05-25T18:36:28.828Z,57
2019-05-25T18:41:44.530Z,58
2019-05-25T18:47:00.106Z,59
2019-05-25T18:52:12.800Z,60
2019-05-25T18:57:28.965Z,60
2019-05-25T19:02:45.442Z,60
2019-05-25T19:08:00.725Z,61
2019-05-25T19:13:17.463Z,62
2019-05-25T19:18:33.261Z,62
2019-05-25T19:23:48.257Z,62
2019-05-25T19:29:06.449Z,62
2019-05-25T19:34:21.357Z,62
2019-05-25T19:39:38.707Z,62
2019-05-25T19:44:53.998Z,62
2019-05-25T19:50:09.371Z,62
2019-05-25T19:55:24.053Z,62
2019-05-25T20:00:40.275Z,64
2019-05-25T20:05:54.210Z,64
2019-05-25T20:11:10.407Z,65
2019-05-25T20:16:25.732Z,65
2019-05-25T20:21:40.590Z,64
2019-05-25T20:26:55.712Z,65
2019-05-25T20:32:12.055Z,65
2019-05-25T20:37:28.012Z,65
2019-05-25T20:42:44.123Z,66
2019-05-25T20:47:59.029Z,66
2019-05-25T20:53:11.181Z,66
2019-05-25T20:58:27.227Z,66
2019-05-25T21:03:45.577Z,66
2019-05-25T21:09:00.350Z,67
2019-05-25T21:14:15.880Z,69
2019-05-25T21:19:31.066Z,68
2019-05-25T21:24:44.400Z,68
2019-05-25T21:30:00.018Z,68
2019-05-25T21:35:15.184Z,68
2019-05-25T21:40:30.170Z,68
2019-05-25T21:45:45.106Z,68
2019-05-25T21:50:59.948Z,69
2019-05-25T21:56:14.751Z,69
2019-05-25T22:01:29.930Z,69
2019-05-25T22:06:45.635Z,69
2019-05-25T22:11:58.952Z,69
2019-05-25T22:17:14.989Z,69
2019-05-25T22:22:29.922Z,70
2019-05-25T22:27:44.911Z,70
2019-05-25T22:32:59.578Z,72
2019-05-25T22:38:15.003Z,72
2019-05-25T22:43:29.736Z,73
2019-05-25T22:48:44.913Z,72
2019-05-25T22:54:00.390Z,72
2019-05-25T23:14:56.053Z,74
2019-05-25T23:20:11.019Z,74
2019-05-25T23:25:26.158Z,75
2019-05-25T23:30:40.491Z,75
2019-05-25T23:35:56.806Z,75
2019-05-25T23:41:14.507Z,76
2019-05-25T23:46:26.679Z,76
2019-05-25T23:51:41.974Z,76
2019-05-25T23:56:55.929Z,76
